sensor_id;sensor_type;location;lat;lon;timestamp;pressure;altitude;pressure_sealevel;temperature;humidity
43039;BME280;62252;50.668;19.530;2022-11-12T00:02:46;99543.84;;;5.27;100.00
43039;BME280;62252;50.668;19.530;2022-11-12T00:05:46;99545.41;;;5.36;100.00
43039;BME280;62252;50.668;19.530;2022-11-12T00:08:39;99537.09;;;5.14;100.00
43039;BME280;62252;50.668;19.530;2022-11-12T00:11:33;99540.56;;;5.16;100.00
43039;BME280;62252;50.668;19.530;2022-11-12T00:14:27;99531.00;;;5.13;100.00
43039;BME280;62252;50.668;19.530;2022-11-12T00:17:19;99531.34;;;4.95;100.00
43039;BME280;62252;50.668;19.530;2022-11-12T00:20:13;99539.00;;;5.06;100.00
43039;BME280;62252;50.668;19.530;2022-11-12T00:23:07;99544.81;;;5.20;100.00
43039;BME280;62252;50.668;19.530;2022-11-12T00:26:02;99546.84;;;5.04;100.00
43039;BME280;62252;50.668;19.530;2022-11-12T00:28:56;99551.28;;;4.98;100.00
43039;BME280;62252;50.668;19.530;2022-11-12T00:31:48;99549.63;;;4.94;100.00
43039;BME280;62252;50.668;19.530;2022-11-12T00:34:40;99543.50;;;4.96;100.00
43039;BME280;62252;50.668;19.530;2022-11-12T00:37:33;99550.63;;;4.85;100.00
43039;BME280;62252;50.668;19.530;2022-11-12T00:40:28;99552.63;;;5.22;100.00
43039;BME280;62252;50.668;19.530;2022-11-12T00:43:20;99554.72;;;5.00;100.00
43039;BME280;62252;50.668;19.530;2022-11-12T00:46:14;99552.06;;;5.03;100.00
43039;BME280;62252;50.668;19.530;2022-11-12T00:49:09;99543.97;;;5.18;100.00
43039;BME280;62252;50.668;19.530;2022-11-12T00:52:03;99556.63;;;4.89;100.00
43039;BME280;62252;50.668;19.530;2022-11-12T00:54:55;99543.50;;;4.96;100.00
43039;BME280;62252;50.668;19.530;2022-11-12T00:57:50;99544.88;;;4.64;100.00
43039;BME280;62252;50.668;19.530;2022-11-12T01:00:42;99545.63;;;4.73;100.00
43039;BME280;62252;50.668;19.530;2022-11-12T01:03:34;99553.97;;;4.93;100.00
43039;BME280;62252;50.668;19.530;2022-11-12T01:06:26;99548.50;;;4.55;100.00
43039;BME280;62252;50.668;19.530;2022-11-12T01:09:18;99559.72;;;4.59;100.00
43039;BME280;62252;50.668;19.530;2022-11-12T01:12:13;99557.78;;;4.73;100.00
43039;BME280;62252;50.668;19.530;2022-11-12T01:15:08;99556.31;;;4.55;100.00
43039;BME280;62252;50.668;19.530;2022-11-12T01:18:00;99555.19;;;4.73;100.00
43039;BME280;62252;50.668;19.530;2022-11-12T01:20:51;99540.66;;;4.58;100.00
43039;BME280;62252;50.668;19.530;2022-11-12T01:23:44;99550.69;;;4.81;100.00
43039;BME280;62252;50.668;19.530;2022-11-12T01:26:42;99567.66;;;4.53;100.00
43039;BME280;62252;50.668;19.530;2022-11-12T01:29:34;99569.63;;;4.36;100.00
43039;BME280;62252;50.668;19.530;2022-11-12T01:32:29;99565.19;;;4.42;100.00
43039;BME280;62252;50.668;19.530;2022-11-12T01:35:24;99560.81;;;4.46;100.00
43039;BME280;62252;50.668;19.530;2022-11-12T01:38:16;99561.66;;;4.46;100.00
43039;BME280;62252;50.668;19.530;2022-11-12T01:41:13;99563.53;;;4.37;100.00
43039;BME280;62252;50.668;19.530;2022-11-12T01:44:11;99557.72;;;4.77;100.00
43039;BME280;62252;50.668;19.530;2022-11-12T01:47:08;99554.72;;;4.47;100.00
43039;BME280;62252;50.668;19.530;2022-11-12T01:50:14;99566.16;;;4.34;100.00
43039;BME280;62252;50.668;19.530;2022-11-12T01:53:12;99573.88;;;4.43;100.00
43039;BME280;62252;50.668;19.530;2022-11-12T01:56:05;99564.25;;;4.48;100.00
43039;BME280;62252;50.668;19.530;2022-11-12T01:59:02;99562.41;;;4.54;100.00
43039;BME280;62252;50.668;19.530;2022-11-12T02:01:56;99561.50;;;3.95;100.00
43039;BME280;62252;50.668;19.530;2022-11-12T02:04:49;99566.88;;;3.83;100.00
43039;BME280;62252;50.668;19.530;2022-11-12T02:07:45;99573.06;;;4.38;100.00
43039;BME280;62252;50.668;19.530;2022-11-12T02:10:38;99570.59;;;4.29;100.00
43039;BME280;62252;50.668;19.530;2022-11-12T02:13:31;99564.16;;;3.90;100.00
43039;BME280;62252;50.668;19.530;2022-11-12T02:16:37;99564.25;;;3.80;100.00
43039;BME280;62252;50.668;19.530;2022-11-12T02:19:29;99567.03;;;4.34;100.00
43039;BME280;62252;50.668;19.530;2022-11-12T02:22:26;99564.25;;;3.80;100.00
43039;BME280;62252;50.668;19.530;2022-11-12T02:25:21;99559.97;;;3.76;100.00
43039;BME280;62252;50.668;19.530;2022-11-12T02:28:13;99562.31;;;3.98;100.00
43039;BME280;62252;50.668;19.530;2022-11-12T02:31:06;99561.41;;;4.01;100.00
43039;BME280;62252;50.668;19.530;2022-11-12T02:33:58;99558.94;;;3.92;100.00
43039;BME280;62252;50.668;19.530;2022-11-12T02:36:50;99566.75;;;3.92;100.00
43039;BME280;62252;50.668;19.530;2022-11-12T02:39:44;99552.66;;;4.06;100.00
43039;BME280;62252;50.668;19.530;2022-11-12T02:42:36;99554.69;;;3.85;100.00
43039;BME280;62252;50.668;19.530;2022-11-12T02:45:28;99561.28;;;4.13;100.00
43039;BME280;62252;50.668;19.530;2022-11-12T02:48:20;99560.63;;;3.94;100.00
43039;BME280;62252;50.668;19.530;2022-11-12T02:51:16;99565.13;;;3.79;100.00
43039;BME280;62252;50.668;19.530;2022-11-12T02:54:08;99561.66;;;3.80;100.00
43039;BME280;62252;50.668;19.530;2022-11-12T02:57:02;99552.94;;;3.87;100.00
43039;BME280;62252;50.668;19.530;2022-11-12T02:59:55;99559.81;;;3.91;100.00
43039;BME280;62252;50.668;19.530;2022-11-12T03:02:48;99568.41;;;3.97;100.00
43039;BME280;62252;50.668;19.530;2022-11-12T03:05:54;99566.56;;;4.04;100.00
43039;BME280;62252;50.668;19.530;2022-11-12T03:08:49;99566.84;;;3.80;100.00
43039;BME280;62252;50.668;19.530;2022-11-12T03:11:41;99561.72;;;3.74;100.00
43039;BME280;62252;50.668;19.530;2022-11-12T03:14:36;99561.66;;;3.80;100.00
43039;BME280;62252;50.668;19.530;2022-11-12T03:17:33;99560.91;;;3.69;100.00
43039;BME280;62252;50.668;19.530;2022-11-12T03:20:25;99564.28;;;3.77;100.00
43039;BME280;62252;50.668;19.530;2022-11-12T03:23:18;99553.09;;;3.72;100.00
43039;BME280;62252;50.668;19.530;2022-11-12T03:26:10;99563.41;;;3.81;100.00
43039;BME280;62252;50.668;19.530;2022-11-12T03:29:02;99559.00;;;3.86;100.00
43039;BME280;62252;50.668;19.530;2022-11-12T03:31:56;99567.78;;;3.74;100.00
43039;BME280;62252;50.668;19.530;2022-11-12T03:34:48;99560.78;;;3.84;100.00
43039;BME280;62252;50.668;19.530;2022-11-12T03:37:39;99568.72;;;3.69;100.00
43039;BME280;62252;50.668;19.530;2022-11-12T03:40:32;99566.28;;;3.55;100.00
43039;BME280;62252;50.668;19.530;2022-11-12T03:43:24;99566.56;;;4.04;100.00
43039;BME280;62252;50.668;19.530;2022-11-12T03:46:16;99570.13;;;3.98;100.00
43039;BME280;62252;50.668;19.530;2022-11-12T03:49:10;99560.59;;;3.97;100.00
43039;BME280;62252;50.668;19.530;2022-11-12T03:52:02;99556.88;;;4.15;100.00
43039;BME280;62252;50.668;19.530;2022-11-12T03:54:55;99558.06;;;3.90;100.00
43039;BME280;62252;50.668;19.530;2022-11-12T03:57:48;99543.31;;;3.93;100.00
43039;BME280;62252;50.668;19.530;2022-11-12T04:00:44;99556.28;;;3.96;100.00
43039;BME280;62252;50.668;19.530;2022-11-12T04:03:36;99554.69;;;3.85;100.00
43039;BME280;62252;50.668;19.530;2022-11-12T04:06:30;99558.19;;;3.78;100.00
43039;BME280;62252;50.668;19.530;2022-11-12T04:09:34;99554.69;;;3.79;100.00
43039;BME280;62252;50.668;19.530;2022-11-12T04:12:27;99550.00;;;4.11;100.00
43039;BME280;62252;50.668;19.530;2022-11-12T04:15:31;99555.59;;;3.76;100.00
43039;BME280;62252;50.668;19.530;2022-11-12T04:18:23;99559.13;;;3.71;100.00
43039;BME280;62252;50.668;19.530;2022-11-12T04:21:32;99545.19;;;3.81;100.00
43039;BME280;62252;50.668;19.530;2022-11-12T04:24:43;99547.78;;;3.79;100.00
43039;BME280;62252;50.668;19.530;2022-11-12T04:27:46;99542.56;;;3.84;100.00
43039;BME280;62252;50.668;19.530;2022-11-12T04:30:38;99541.09;;;3.59;100.00
43039;BME280;62252;50.668;19.530;2022-11-12T04:33:30;99536.34;;;3.94;100.00
43039;BME280;62252;50.668;19.530;2022-11-12T04:36:22;99530.53;;;3.71;100.00
43039;BME280;62252;50.668;19.530;2022-11-12T04:39:19;99527.94;;;3.68;100.00
43039;BME280;62252;50.668;19.530;2022-11-12T04:42:11;99520.47;;;3.42;100.00
43039;BME280;62252;50.668;19.530;2022-11-12T04:45:15;99526.94;;;3.84;100.00
43039;BME280;62252;50.668;19.530;2022-11-12T04:48:07;99530.50;;;3.74;100.00
43039;BME280;62252;50.668;19.530;2022-11-12T04:51:02;99522.66;;;3.75;100.00
43039;BME280;62252;50.668;19.530;2022-11-12T04:54:16;99527.13;;;3.66;100.00
43039;BME280;62252;50.668;19.530;2022-11-12T04:57:08;99520.81;;;3.89;100.00
43039;BME280;62252;50.668;19.530;2022-11-12T05:00:07;99521.63;;;3.91;100.00
43039;BME280;62252;50.668;19.530;2022-11-12T05:03:01;99522.75;;;3.68;100.00
43039;BME280;62252;50.668;19.530;2022-11-12T05:06:00;99523.53;;;3.77;100.00
43039;BME280;62252;50.668;19.530;2022-11-12T05:09:13;99528.00;;;3.66;100.00
43039;BME280;62252;50.668;19.530;2022-11-12T05:12:08;99526.13;;;3.77;100.00
43039;BME280;62252;50.668;19.530;2022-11-12T05:15:00;99520.38;;;3.50;100.00
43039;BME280;62252;50.668;19.530;2022-11-12T05:17:53;99526.38;;;3.56;100.00
43039;BME280;62252;50.668;19.530;2022-11-12T05:20:45;99533.88;;;3.83;100.00
43039;BME280;62252;50.668;19.530;2022-11-12T05:23:37;99532.19;;;3.76;100.00
43039;BME280;62252;50.668;19.530;2022-11-12T05:26:28;99535.88;;;3.59;100.00
43039;BME280;62252;50.668;19.530;2022-11-12T05:29:23;99544.13;;;3.94;100.00
43039;BME280;62252;50.668;19.530;2022-11-12T05:32:16;99551.72;;;3.36;100.00
43039;BME280;62252;50.668;19.530;2022-11-12T05:35:08;99551.00;;;3.99;100.00
43039;BME280;62252;50.668;19.530;2022-11-12T05:38:00;99559.34;;;3.53;100.00
43039;BME280;62252;50.668;19.530;2022-11-12T05:40:52;99553.75;;;3.89;100.00
43039;BME280;62252;50.668;19.530;2022-11-12T05:43:43;99561.91;;;3.56;100.00
43039;BME280;62252;50.668;19.530;2022-11-12T05:46:38;99561.09;;;3.52;100.00
43039;BME280;62252;50.668;19.530;2022-11-12T05:49:30;99567.81;;;3.71;100.00
43039;BME280;62252;50.668;19.530;2022-11-12T05:52:22;99568.88;;;3.55;100.00
43039;BME280;62252;50.668;19.530;2022-11-12T05:55:14;99577.53;;;3.56;100.00
43039;BME280;62252;50.668;19.530;2022-11-12T05:58:06;99574.88;;;3.59;100.00
43039;BME280;62252;50.668;19.530;2022-11-12T06:00:58;99575.34;;;3.15;100.00
43039;BME280;62252;50.668;19.530;2022-11-12T06:03:52;99577.97;;;3.11;100.00
43039;BME280;62252;50.668;19.530;2022-11-12T06:06:45;99579.38;;;3.45;100.00
43039;BME280;62252;50.668;19.530;2022-11-12T06:09:37;99588.22;;;3.26;100.00
43039;BME280;62252;50.668;19.530;2022-11-12T06:12:32;99584.59;;;3.42;100.00
43039;BME280;62252;50.668;19.530;2022-11-12T06:15:24;99584.88;;;3.15;100.00
43039;BME280;62252;50.668;19.530;2022-11-12T06:18:18;99583.19;;;3.08;100.00
43039;BME280;62252;50.668;19.530;2022-11-12T06:21:16;99578.69;;;3.28;100.00
43039;BME280;62252;50.668;19.530;2022-11-12T06:24:09;99584.59;;;3.42;100.00
43039;BME280;62252;50.668;19.530;2022-11-12T06:27:01;99582.16;;;3.25;100.00
43039;BME280;62252;50.668;19.530;2022-11-12T06:29:53;99586.00;;;3.73;100.00
43039;BME280;62252;50.668;19.530;2022-11-12T06:32:47;99587.41;;;3.21;100.00
43039;BME280;62252;50.668;19.530;2022-11-12T06:35:44;99593.88;;;3.65;100.00
43039;BME280;62252;50.668;19.530;2022-11-12T06:38:39;99593.56;;;3.12;100.00
43039;BME280;62252;50.668;19.530;2022-11-12T06:41:32;99590.81;;;3.26;100.00
43039;BME280;62252;50.668;19.530;2022-11-12T06:44:23;99588.97;;;3.40;100.00
43039;BME280;62252;50.668;19.530;2022-11-12T06:47:19;99591.53;;;3.43;100.00
43039;BME280;62252;50.668;19.530;2022-11-12T06:50:11;99588.81;;;3.55;100.00
43039;BME280;62252;50.668;19.530;2022-11-12T06:53:03;99589.63;;;3.60;100.00
43039;BME280;62252;50.668;19.530;2022-11-12T06:56:00;99596.63;;;3.53;100.00
43039;BME280;62252;50.668;19.530;2022-11-12T06:58:52;99597.53;;;3.49;100.00
43039;BME280;62252;50.668;19.530;2022-11-12T07:01:44;99602.28;;;3.94;100.00
43039;BME280;62252;50.668;19.530;2022-11-12T07:04:36;99587.63;;;3.86;100.00
43039;BME280;62252;50.668;19.530;2022-11-12T07:07:28;99591.13;;;3.79;100.00
43039;BME280;62252;50.668;19.530;2022-11-12T07:10:20;99588.75;;;4.35;100.00
43039;BME280;62252;50.668;19.530;2022-11-12T07:13:15;99602.13;;;4.05;100.00
43039;BME280;62252;50.668;19.530;2022-11-12T07:16:08;99590.72;;;4.15;100.00
43039;BME280;62252;50.668;19.530;2022-11-12T07:19:04;99583.56;;;4.32;100.00
43039;BME280;62252;50.668;19.530;2022-11-12T07:21:56;99580.78;;;4.44;100.00
43039;BME280;62252;50.668;19.530;2022-11-12T07:24:49;99582.91;;;4.77;100.00
43039;BME280;62252;50.668;19.530;2022-11-12T07:27:41;99579.88;;;4.48;100.00
43039;BME280;62252;50.668;19.530;2022-11-12T07:30:36;99580.41;;;4.69;100.00
43039;BME280;62252;50.668;19.530;2022-11-12T07:33:29;99574.16;;;4.81;100.00
43039;BME280;62252;50.668;19.530;2022-11-12T07:36:24;99579.41;;;5.31;100.00
43039;BME280;62252;50.668;19.530;2022-11-12T07:39:16;99580.75;;;5.03;100.00
43039;BME280;62252;50.668;19.530;2022-11-12T07:42:08;99567.44;;;5.20;100.00
43039;BME280;62252;50.668;19.530;2022-11-12T07:44:59;99574.63;;;5.54;100.00
43039;BME280;62252;50.668;19.530;2022-11-12T07:47:54;99581.84;;;5.40;100.00
43039;BME280;62252;50.668;19.530;2022-11-12T07:50:49;99578.19;;;5.50;100.00
43039;BME280;62252;50.668;19.530;2022-11-12T07:53:41;99584.91;;;5.62;100.00
43039;BME280;62252;50.668;19.530;2022-11-12T07:56:33;99582.97;;;5.73;100.00
43039;BME280;62252;50.668;19.530;2022-11-12T07:59:25;99581.91;;;5.83;100.00
43039;BME280;62252;50.668;19.530;2022-11-12T08:02:16;99579.31;;;5.81;100.00
43039;BME280;62252;50.668;19.530;2022-11-12T08:05:13;99590.72;;;5.77;100.00
43039;BME280;62252;50.668;19.530;2022-11-12T08:08:05;99589.44;;;5.98;100.00
43039;BME280;62252;50.668;19.530;2022-11-12T08:10:58;99584.22;;;5.98;100.00
43039;BME280;62252;50.668;19.530;2022-11-12T08:13:50;99592.59;;;6.13;100.00
43039;BME280;62252;50.668;19.530;2022-11-12T08:16:42;99594.19;;;6.20;100.00
43039;BME280;62252;50.668;19.530;2022-11-12T08:19:34;99600.03;;;6.34;100.00
43039;BME280;62252;50.668;19.530;2022-11-12T08:22:30;99607.25;;;6.61;100.00
43039;BME280;62252;50.668;19.530;2022-11-12T08:25:25;99606.66;;;6.49;100.00
43039;BME280;62252;50.668;19.530;2022-11-12T08:28:16;99604.41;;;6.32;100.00
43039;BME280;62252;50.668;19.530;2022-11-12T08:31:10;99604.28;;;6.38;100.00
43039;BME280;62252;50.668;19.530;2022-11-12T08:34:02;99601.47;;;6.47;100.00
43039;BME280;62252;50.668;19.530;2022-11-12T08:37:00;99602.09;;;6.58;100.00
43039;BME280;62252;50.668;19.530;2022-11-12T08:39:55;99600.38;;;6.57;100.00
43039;BME280;62252;50.668;19.530;2022-11-12T08:42:46;99606.97;;;6.73;100.00
43039;BME280;62252;50.668;19.530;2022-11-12T08:45:39;99603.44;;;6.76;100.00
43039;BME280;62252;50.668;19.530;2022-11-12T08:48:32;99598.09;;;6.80;100.00
43039;BME280;62252;50.668;19.530;2022-11-12T08:51:24;99610.28;;;6.81;100.00
43039;BME280;62252;50.668;19.530;2022-11-12T08:54:16;99601.34;;;6.91;100.00
43039;BME280;62252;50.668;19.530;2022-11-12T08:57:10;99607.50;;;6.89;100.00
43039;BME280;62252;50.668;19.530;2022-11-12T09:00:03;99603.03;;;6.92;100.00
43039;BME280;62252;50.668;19.530;2022-11-12T09:02:58;99607.09;;;7.05;100.00
43039;BME280;62252;50.668;19.530;2022-11-12T09:05:51;99604.63;;;6.99;100.00
43039;BME280;62252;50.668;19.530;2022-11-12T09:08:43;99608.78;;;7.08;100.00
43039;BME280;62252;50.668;19.530;2022-11-12T09:11:37;99606.50;;;7.29;100.00
43039;BME280;62252;50.668;19.530;2022-11-12T09:14:32;99612.31;;;7.40;100.00
43039;BME280;62252;50.668;19.530;2022-11-12T09:17:26;99610.22;;;7.54;100.00
43039;BME280;62252;50.668;19.530;2022-11-12T09:20:21;99612.06;;;7.51;100.00
43039;BME280;62252;50.668;19.530;2022-11-12T09:23:14;99616.00;;;7.33;100.00
43039;BME280;62252;50.668;19.530;2022-11-12T09:26:06;99619.13;;;7.47;100.00
43039;BME280;62252;50.668;19.530;2022-11-12T09:28:58;99618.94;;;7.55;100.00
43039;BME280;62252;50.668;19.530;2022-11-12T09:31:53;99615.28;;;7.60;100.00
43039;BME280;62252;50.668;19.530;2022-11-12T09:34:45;99621.00;;;7.42;100.00
43039;BME280;62252;50.668;19.530;2022-11-12T09:37:38;99619.16;;;7.79;100.00
43039;BME280;62252;50.668;19.530;2022-11-12T09:40:47;99611.97;;;7.54;100.00
43039;BME280;62252;50.668;19.530;2022-11-12T09:43:49;99615.59;;;7.50;100.00
43039;BME280;62252;50.668;19.530;2022-11-12T09:46:45;99611.44;;;7.73;100.00
43039;BME280;62252;50.668;19.530;2022-11-12T09:49:44;99625.41;;;7.74;100.00
43039;BME280;62252;50.668;19.530;2022-11-12T09:52:39;99623.03;;;7.65;100.00
43039;BME280;62252;50.668;19.530;2022-11-12T09:55:35;99622.91;;;7.69;100.00
43039;BME280;62252;50.668;19.530;2022-11-12T09:58:30;99617.91;;;7.60;100.00
43039;BME280;62252;50.668;19.530;2022-11-12T10:01:28;99616.25;;;7.58;100.00
43039;BME280;62252;50.668;19.530;2022-11-12T10:04:46;99613.28;;;7.70;100.00
43039;BME280;62252;50.668;19.530;2022-11-12T10:07:53;99622.50;;;7.52;100.00
43039;BME280;62252;50.668;19.530;2022-11-12T10:10:48;99625.44;;;7.72;100.00
43039;BME280;62252;50.668;19.530;2022-11-12T10:13:52;99631.63;;;7.70;100.00
43039;BME280;62252;50.668;19.530;2022-11-12T10:16:55;99631.03;;;7.59;100.00
43039;BME280;62252;50.668;19.530;2022-11-12T10:20:00;99634.09;;;7.76;100.00
43039;BME280;62252;50.668;19.530;2022-11-12T10:23:09;99623.97;;;7.94;100.00
43039;BME280;62252;50.668;19.530;2022-11-12T10:26:10;99632.31;;;7.76;100.00
43039;BME280;62252;50.668;19.530;2022-11-12T10:29:13;99637.88;;;7.64;100.00
43039;BME280;62252;50.668;19.530;2022-11-12T10:32:13;99635.19;;;7.67;100.00
43039;BME280;62252;50.668;19.530;2022-11-12T10:35:09;99631.22;;;7.85;100.00
43039;BME280;62252;50.668;19.530;2022-11-12T10:38:05;99633.72;;;7.56;100.00
43039;BME280;62252;50.668;19.530;2022-11-12T10:40:58;99633.34;;;7.71;100.00
43039;BME280;62252;50.668;19.530;2022-11-12T10:43:56;99643.78;;;7.72;100.00
43039;BME280;62252;50.668;19.530;2022-11-12T10:46:47;99627.56;;;7.58;100.00
43039;BME280;62252;50.668;19.530;2022-11-12T10:49:39;99625.78;;;7.60;100.00
43039;BME280;62252;50.668;19.530;2022-11-12T10:52:34;99629.81;;;7.72;100.00
43039;BME280;62252;50.668;19.530;2022-11-12T10:55:28;99636.25;;;7.60;100.00
43039;BME280;62252;50.668;19.530;2022-11-12T10:58:20;99625.81;;;7.91;100.00
43039;BME280;62252;50.668;19.530;2022-11-12T11:01:15;99630.69;;;8.04;100.00
43039;BME280;62252;50.668;19.530;2022-11-12T11:04:16;99628.41;;;7.92;100.00
43039;BME280;62252;50.668;19.530;2022-11-12T11:07:20;99624.94;;;7.90;100.00
43039;BME280;62252;50.668;19.530;2022-11-12T11:10:24;99625.72;;;7.94;100.00
43039;BME280;62252;50.668;19.530;2022-11-12T11:13:26;99629.50;;;7.84;100.00
43039;BME280;62252;50.668;19.530;2022-11-12T11:16:19;99630.91;;;7.95;100.00
43039;BME280;62252;50.668;19.530;2022-11-12T11:19:11;99625.59;;;7.98;100.00
43039;BME280;62252;50.668;19.530;2022-11-12T11:22:17;99613.84;;;7.82;100.00
43039;BME280;62252;50.668;19.530;2022-11-12T11:25:23;99612.34;;;8.04;100.00
43039;BME280;62252;50.668;19.530;2022-11-12T11:28:23;99613.72;;;7.87;100.00
43039;BME280;62252;50.668;19.530;2022-11-12T11:31:24;99620.53;;;7.92;100.00
43039;BME280;62252;50.668;19.530;2022-11-12T11:34:32;99625.69;;;7.95;100.00
43039;BME280;62252;50.668;19.530;2022-11-12T11:37:29;99618.38;;;8.08;100.00
43039;BME280;62252;50.668;19.530;2022-11-12T11:40:28;99621.41;;;7.91;100.00
43039;BME280;62252;50.668;19.530;2022-11-12T11:43:38;99617.34;;;7.81;100.00
43039;BME280;62252;50.668;19.530;2022-11-12T11:46:43;99614.13;;;8.02;100.00
43039;BME280;62252;50.668;19.530;2022-11-12T11:49:52;99612.13;;;7.81;100.00
43039;BME280;62252;50.668;19.530;2022-11-12T11:52:58;99613.13;;;8.08;100.00
43039;BME280;62252;50.668;19.530;2022-11-12T11:55:58;99625.69;;;7.95;100.00
43039;BME280;62252;50.668;19.530;2022-11-12T11:59:07;99621.69;;;7.82;100.00
43039;BME280;62252;50.668;19.530;2022-11-12T12:02:26;99613.59;;;7.90;100.00
43039;BME280;62252;50.668;19.530;2022-11-12T12:05:32;99615.91;;;8.02;100.00
43039;BME280;62252;50.668;19.530;2022-11-12T12:08:36;99610.00;;;7.94;100.00
43039;BME280;62252;50.668;19.530;2022-11-12T12:11:41;99607.75;;;7.80;100.00
43039;BME280;62252;50.668;19.530;2022-11-12T12:14:46;99605.19;;;7.79;100.00
43039;BME280;62252;50.668;19.530;2022-11-12T12:17:49;99605.47;;;8.00;100.00
43039;BME280;62252;50.668;19.530;2022-11-12T12:20:51;99603.47;;;7.78;100.00
43039;BME280;62252;50.668;19.530;2022-11-12T12:23:51;99591.56;;;7.66;100.00
43039;BME280;62252;50.668;19.530;2022-11-12T12:26:51;99592.19;;;7.76;100.00
43039;BME280;62252;50.668;19.530;2022-11-12T12:29:52;99594.66;;;7.80;100.00
43039;BME280;62252;50.668;19.530;2022-11-12T12:32:52;99595.56;;;7.79;100.00
43039;BME280;62252;50.668;19.530;2022-11-12T12:35:51;99595.31;;;7.88;100.00
43039;BME280;62252;50.668;19.530;2022-11-12T12:38:48;99599.41;;;7.66;100.00
43039;BME280;62252;50.668;19.530;2022-11-12T12:41:49;99595.91;;;7.67;100.00
43039;BME280;62252;50.668;19.530;2022-11-12T12:44:48;99599.63;;;7.59;100.00
43039;BME280;62252;50.668;19.530;2022-11-12T12:48:14;99598.53;;;7.67;100.00
43039;BME280;62252;50.668;19.530;2022-11-12T12:51:08;99592.97;;;7.46;100.00
43039;BME280;62252;50.668;19.530;2022-11-12T12:54:00;99587.81;;;7.44;100.00
43039;BME280;62252;50.668;19.530;2022-11-12T12:56:59;99596.94;;;7.62;100.00
43039;BME280;62252;50.668;19.530;2022-11-12T13:03:49;99593.25;;;7.35;100.00
43039;BME280;62252;50.668;19.530;2022-11-12T13:06:52;99601.44;;;7.23;100.00
43039;BME280;62252;50.668;19.530;2022-11-12T13:09:45;99607.00;;;7.43;100.00
43039;BME280;62252;50.668;19.530;2022-11-12T13:13:04;99608.66;;;7.14;100.00
43039;BME280;62252;50.668;19.530;2022-11-12T13:15:59;99613.53;;;7.27;100.00
43039;BME280;62252;50.668;19.530;2022-11-12T13:19:01;99608.72;;;7.11;100.00
43039;BME280;62252;50.668;19.530;2022-11-12T13:25:26;99599.34;;;7.01;100.00
43039;BME280;62252;50.668;19.530;2022-11-12T13:28:21;99597.38;;;7.10;100.00
43039;BME280;62252;50.668;19.530;2022-11-12T13:31:27;99596.81;;;6.98;100.00
43039;BME280;62252;50.668;19.530;2022-11-12T13:34:24;99595.38;;;7.20;100.00
43039;BME280;62252;50.668;19.530;2022-11-12T13:37:22;99600.19;;;7.03;100.00
43039;BME280;62252;50.668;19.530;2022-11-12T13:40:16;99600.31;;;6.97;100.00
43039;BME280;62252;50.668;19.530;2022-11-12T13:46:31;99596.41;;;6.79;100.00
43039;BME280;62252;50.668;19.530;2022-11-12T13:49:23;99594.16;;;6.99;100.00
43039;BME280;62252;50.668;19.530;2022-11-12T13:52:18;99589.50;;;6.77;100.00
43039;BME280;62252;50.668;19.530;2022-11-12T13:55:14;99591.16;;;6.79;100.00
43039;BME280;62252;50.668;19.530;2022-11-12T13:58:23;99587.09;;;6.66;100.00
43039;BME280;62252;50.668;19.530;2022-11-12T14:01:20;99589.66;;;6.69;100.00
43039;BME280;62252;50.668;19.530;2022-11-12T14:04:18;99581.50;;;6.81;100.00
43039;BME280;62252;50.668;19.530;2022-11-12T14:07:26;99589.28;;;6.48;100.00
43039;BME280;62252;50.668;19.530;2022-11-12T14:10:34;99585.75;;;6.49;100.00
43039;BME280;62252;50.668;19.530;2022-11-12T14:13:43;99583.47;;;6.35;100.00
43039;BME280;62252;50.668;19.530;2022-11-12T14:16:50;99577.75;;;6.56;100.00
43039;BME280;62252;50.668;19.530;2022-11-12T14:20:16;99576.63;;;6.28;100.00
43039;BME280;62252;50.668;19.530;2022-11-12T14:23:14;99572.59;;;6.12;100.00
43039;BME280;62252;50.668;19.530;2022-11-12T14:29:31;99578.81;;;6.07;100.00
43039;BME280;62252;50.668;19.530;2022-11-12T14:32:23;99569.91;;;6.15;100.00
43039;BME280;62252;50.668;19.530;2022-11-12T14:35:30;99579.59;;;6.10;100.00
43039;BME280;62252;50.668;19.530;2022-11-12T14:38:25;99574.84;;;5.88;100.00
43039;BME280;62252;50.668;19.530;2022-11-12T14:41:21;99581.97;;;5.78;100.00
43039;BME280;62252;50.668;19.530;2022-11-12T14:44:18;99588.16;;;5.74;100.00
43039;BME280;62252;50.668;19.530;2022-11-12T14:47:12;99588.28;;;5.68;100.00
43039;BME280;62252;50.668;19.530;2022-11-12T14:50:13;99598.25;;;5.45;100.00
43039;BME280;62252;50.668;19.530;2022-11-12T14:53:13;99593.31;;;5.77;100.00
43039;BME280;62252;50.668;19.530;2022-11-12T14:56:08;99581.16;;;5.76;100.00
43039;BME280;62252;50.668;19.530;2022-11-12T14:59:03;99583.03;;;5.70;100.00
43039;BME280;62252;50.668;19.530;2022-11-12T15:02:06;99591.34;;;5.43;100.00
43039;BME280;62252;50.668;19.530;2022-11-12T15:05:11;99589.25;;;5.63;100.00
43039;BME280;62252;50.668;19.530;2022-11-12T15:08:05;99582.69;;;5.88;100.00
43039;BME280;62252;50.668;19.530;2022-11-12T15:11:21;99585.22;;;5.91;100.00
43039;BME280;62252;50.668;19.530;2022-11-12T15:14:21;99580.63;;;5.58;100.00
43039;BME280;62252;50.668;19.530;2022-11-12T15:17:27;99577.47;;;5.88;100.00
43039;BME280;62252;50.668;19.530;2022-11-12T15:20:20;99592.75;;;5.62;100.00
43039;BME280;62252;50.668;19.530;2022-11-12T15:23:16;99600.44;;;5.69;100.00
43039;BME280;62252;50.668;19.530;2022-11-12T15:26:22;99597.03;;;5.66;100.00
43039;BME280;62252;50.668;19.530;2022-11-12T15:29:22;99601.19;;;5.74;100.00
43039;BME280;62252;50.668;19.530;2022-11-12T15:32:32;99597.84;;;5.69;100.00
43039;BME280;62252;50.668;19.530;2022-11-12T15:35:34;99607.56;;;5.61;100.00
43039;BME280;62252;50.668;19.530;2022-11-12T15:38:33;99615.31;;;5.66;100.00